sensor_id;sensor_type;location;lat;lon;timestamp;P1;durP1;ratioP1;P2;durP2;ratioP2
17741;SDS011;8993;51.822;-2.268;2023-03-14T00:03:24;1.40;;;0.41;;
17741;SDS011;8993;51.822;-2.268;2023-03-14T00:08:28;1.51;;;0.45;;
17741;SDS011;8993;51.822;-2.268;2023-03-14T00:13:32;2.84;;;0.52;;
17741;SDS011;8993;51.822;-2.268;2023-03-14T00:18:36;2.67;;;0.59;;
17741;SDS011;8993;51.822;-2.268;2023-03-14T00:23:40;2.51;;;0.65;;
17741;SDS011;8993;51.822;-2.268;2023-03-14T00:28:44;3.26;;;0.62;;
17741;SDS011;8993;51.822;-2.268;2023-03-14T00:33:48;3.24;;;0.59;;
17741;SDS011;8993;51.822;-2.268;2023-03-14T00:38:52;3.72;;;0.77;;
17741;SDS011;8993;51.822;-2.268;2023-03-14T00:43:56;3.76;;;0.62;;
17741;SDS011;8993;51.822;-2.268;2023-03-14T00:49:00;4.64;;;0.76;;
17741;SDS011;8993;51.822;-2.268;2023-03-14T00:54:04;7.35;;;0.99;;
17741;SDS011;8993;51.822;-2.268;2023-03-14T00:59:08;7.47;;;0.93;;
17741;SDS011;8993;51.822;-2.268;2023-03-14T01:04:12;7.63;;;1.03;;
17741;SDS011;8993;51.822;-2.268;2023-03-14T01:09:17;9.19;;;0.88;;
17741;SDS011;8993;51.822;-2.268;2023-03-14T01:14:20;9.26;;;1.17;;
17741;SDS011;8993;51.822;-2.268;2023-03-14T01:19:25;7.25;;;0.99;;
17741;SDS011;8993;51.822;-2.268;2023-03-14T01:24:28;8.13;;;1.05;;
17741;SDS011;8993;51.822;-2.268;2023-03-14T01:29:32;8.14;;;1.04;;
17741;SDS011;8993;51.822;-2.268;2023-03-14T01:34:37;10.83;;;1.20;;
17741;SDS011;8993;51.822;-2.268;2023-03-14T01:39:41;9.74;;;1.19;;
17741;SDS011;8993;51.822;-2.268;2023-03-14T01:44:47;9.11;;;1.18;;
17741;SDS011;8993;51.822;-2.268;2023-03-14T01:49:49;9.78;;;1.20;;
17741;SDS011;8993;51.822;-2.268;2023-03-14T01:54:54;10.53;;;1.32;;
17741;SDS011;8993;51.822;-2.268;2023-03-14T01:59:57;11.82;;;1.43;;
17741;SDS011;8993;51.822;-2.268;2023-03-14T02:05:01;9.39;;;1.48;;
17741;SDS011;8993;51.822;-2.268;2023-03-14T02:10:05;14.27;;;1.57;;
17741;SDS011;8993;51.822;-2.268;2023-03-14T02:15:10;12.52;;;1.39;;
17741;SDS011;8993;51.822;-2.268;2023-03-14T02:20:17;12.71;;;1.44;;
17741;SDS011;8993;51.822;-2.268;2023-03-14T02:25:18;13.72;;;1.37;;
17741;SDS011;8993;51.822;-2.268;2023-03-14T02:30:21;14.37;;;1.56;;
17741;SDS011;8993;51.822;-2.268;2023-03-14T02:35:27;15.41;;;1.70;;
17741;SDS011;8993;51.822;-2.268;2023-03-14T02:40:29;15.38;;;1.50;;
17741;SDS011;8993;51.822;-2.268;2023-03-14T02:45:36;14.68;;;1.71;;
17741;SDS011;8993;51.822;-2.268;2023-03-14T02:50:37;16.53;;;1.56;;
17741;SDS011;8993;51.822;-2.268;2023-03-14T02:55:44;11.70;;;1.38;;
17741;SDS011;8993;51.822;-2.268;2023-03-14T03:00:45;14.50;;;1.62;;
17741;SDS011;8993;51.822;-2.268;2023-03-14T03:05:50;11.73;;;1.36;;
17741;SDS011;8993;51.822;-2.268;2023-03-14T03:10:54;14.89;;;1.52;;
17741;SDS011;8993;51.822;-2.268;2023-03-14T03:15:58;14.60;;;1.87;;
17741;SDS011;8993;51.822;-2.268;2023-03-14T03:21:02;13.78;;;1.70;;
17741;SDS011;8993;51.822;-2.268;2023-03-14T03:26:06;12.04;;;1.45;;
17741;SDS011;8993;51.822;-2.268;2023-03-14T03:31:10;14.90;;;1.53;;
17741;SDS011;8993;51.822;-2.268;2023-03-14T03:36:14;13.91;;;1.53;;
17741;SDS011;8993;51.822;-2.268;2023-03-14T03:41:18;15.24;;;1.66;;
17741;SDS011;8993;51.822;-2.268;2023-03-14T03:46:22;13.05;;;1.44;;
17741;SDS011;8993;51.822;-2.268;2023-03-14T03:51:26;12.62;;;1.49;;
17741;SDS011;8993;51.822;-2.268;2023-03-14T03:56:30;15.28;;;1.78;;
17741;SDS011;8993;51.822;-2.268;2023-03-14T04:01:34;11.96;;;1.48;;
17741;SDS011;8993;51.822;-2.268;2023-03-14T04:06:39;13.07;;;1.59;;
17741;SDS011;8993;51.822;-2.268;2023-03-14T04:11:43;10.40;;;1.44;;
17741;SDS011;8993;51.822;-2.268;2023-03-14T04:16:47;11.51;;;1.44;;
17741;SDS011;8993;51.822;-2.268;2023-03-14T04:21:51;13.89;;;1.44;;
17741;SDS011;8993;51.822;-2.268;2023-03-14T04:26:55;12.96;;;1.44;;
17741;SDS011;8993;51.822;-2.268;2023-03-14T04:32:00;15.26;;;1.62;;
17741;SDS011;8993;51.822;-2.268;2023-03-14T04:37:04;11.94;;;1.27;;
17741;SDS011;8993;51.822;-2.268;2023-03-14T04:42:08;11.04;;;1.24;;
17741;SDS011;8993;51.822;-2.268;2023-03-14T04:47:12;12.34;;;1.25;;
17741;SDS011;8993;51.822;-2.268;2023-03-14T04:52:17;11.95;;;1.22;;
17741;SDS011;8993;51.822;-2.268;2023-03-14T04:57:21;9.06;;;1.18;;
17741;SDS011;8993;51.822;-2.268;2023-03-14T05:02:25;11.65;;;1.25;;
17741;SDS011;8993;51.822;-2.268;2023-03-14T05:07:29;11.18;;;1.26;;
17741;SDS011;8993;51.822;-2.268;2023-03-14T05:12:33;10.71;;;1.21;;
17741;SDS011;8993;51.822;-2.268;2023-03-14T05:17:37;10.43;;;1.31;;
17741;SDS011;8993;51.822;-2.268;2023-03-14T05:22:42;10.77;;;1.18;;
17741;SDS011;8993;51.822;-2.268;2023-03-14T05:27:46;9.83;;;1.12;;
17741;SDS011;8993;51.822;-2.268;2023-03-14T05:32:50;9.44;;;1.15;;
17741;SDS011;8993;51.822;-2.268;2023-03-14T05:37:54;11.88;;;1.54;;
17741;SDS011;8993;51.822;-2.268;2023-03-14T05:42:58;15.06;;;1.32;;
17741;SDS011;8993;51.822;-2.268;2023-03-14T05:48:02;11.71;;;1.27;;
17741;SDS011;8993;51.822;-2.268;2023-03-14T05:53:07;13.55;;;1.32;;
17741;SDS011;8993;51.822;-2.268;2023-03-14T05:58:11;11.66;;;1.34;;
17741;SDS011;8993;51.822;-2.268;2023-03-14T06:03:15;11.35;;;1.27;;
17741;SDS011;8993;51.822;-2.268;2023-03-14T06:08:20;12.06;;;1.14;;
17741;SDS011;8993;51.822;-2.268;2023-03-14T06:13:24;12.76;;;1.14;;
17741;SDS011;8993;51.822;-2.268;2023-03-14T06:18:28;10.17;;;1.18;;
17741;SDS011;8993;51.822;-2.268;2023-03-14T06:23:32;9.94;;;1.18;;
17741;SDS011;8993;51.822;-2.268;2023-03-14T06:28:36;9.38;;;0.87;;
17741;SDS011;8993;51.822;-2.268;2023-03-14T06:33:40;6.83;;;0.86;;
17741;SDS011;8993;51.822;-2.268;2023-03-14T06:38:45;5.87;;;0.65;;
17741;SDS011;8993;51.822;-2.268;2023-03-14T06:43:49;6.57;;;0.81;;
17741;SDS011;8993;51.822;-2.268;2023-03-14T06:48:53;4.88;;;0.74;;
17741;SDS011;8993;51.822;-2.268;2023-03-14T06:53:57;6.84;;;0.72;;
17741;SDS011;8993;51.822;-2.268;2023-03-14T06:59:01;6.14;;;0.68;;
17741;SDS011;8993;51.822;-2.268;2023-03-14T07:04:05;4.28;;;0.76;;
17741;SDS011;8993;51.822;-2.268;2023-03-14T07:09:10;6.49;;;0.87;;
17741;SDS011;8993;51.822;-2.268;2023-03-14T07:14:14;3.93;;;0.82;;
17741;SDS011;8993;51.822;-2.268;2023-03-14T07:19:18;6.24;;;0.72;;
17741;SDS011;8993;51.822;-2.268;2023-03-14T07:24:22;4.53;;;0.77;;
17741;SDS011;8993;51.822;-2.268;2023-03-14T07:29:26;6.29;;;0.89;;
17741;SDS011;8993;51.822;-2.268;2023-03-14T07:34:30;4.38;;;0.71;;
17741;SDS011;8993;51.822;-2.268;2023-03-14T07:39:34;6.10;;;0.78;;
17741;SDS011;8993;51.822;-2.268;2023-03-14T07:44:38;6.25;;;0.76;;
17741;SDS011;8993;51.822;-2.268;2023-03-14T07:49:42;4.12;;;0.56;;
17741;SDS011;8993;51.822;-2.268;2023-03-14T07:54:46;3.60;;;0.50;;
17741;SDS011;8993;51.822;-2.268;2023-03-14T07:59:50;2.15;;;0.50;;
17741;SDS011;8993;51.822;-2.268;2023-03-14T08:04:54;2.06;;;0.46;;
17741;SDS011;8993;51.822;-2.268;2023-03-14T08:09:58;1.22;;;0.57;;
17741;SDS011;8993;51.822;-2.268;2023-03-14T08:15:02;1.25;;;0.40;;
17741;SDS011;8993;51.822;-2.268;2023-03-14T08:20:06;2.02;;;0.56;;
17741;SDS011;8993;51.822;-2.268;2023-03-14T08:25:10;2.93;;;0.53;;
17741;SDS011;8993;51.822;-2.268;2023-03-14T08:30:15;2.04;;;0.64;;
17741;SDS011;8993;51.822;-2.268;2023-03-14T08:35:19;1.57;;;0.59;;
17741;SDS011;8993;51.822;-2.268;2023-03-14T08:40:22;1.68;;;0.72;;
17741;SDS011;8993;51.822;-2.268;2023-03-14T08:45:26;2.60;;;0.96;;
17741;SDS011;8993;51.822;-2.268;2023-03-14T08:50:31;1.79;;;0.96;;
17741;SDS011;8993;51.822;-2.268;2023-03-14T08:55:35;2.32;;;1.08;;
17741;SDS011;8993;51.822;-2.268;2023-03-14T09:00:39;2.21;;;1.07;;
17741;SDS011;8993;51.822;-2.268;2023-03-14T09:05:43;1.91;;;1.05;;
17741;SDS011;8993;51.822;-2.268;2023-03-14T09:10:47;2.42;;;1.27;;
17741;SDS011;8993;51.822;-2.268;2023-03-14T09:15:51;2.82;;;1.57;;
17741;SDS011;8993;51.822;-2.268;2023-03-14T09:20:55;2.71;;;1.27;;
17741;SDS011;8993;51.822;-2.268;2023-03-14T09:26:00;2.88;;;1.28;;
17741;SDS011;8993;51.822;-2.268;2023-03-14T09:31:05;2.12;;;1.45;;
17741;SDS011;8993;51.822;-2.268;2023-03-14T09:36:09;2.74;;;1.27;;
17741;SDS011;8993;51.822;-2.268;2023-03-14T09:41:14;2.49;;;1.08;;
17741;SDS011;8993;51.822;-2.268;2023-03-14T09:46:16;3.60;;;1.39;;
17741;SDS011;8993;51.822;-2.268;2023-03-14T09:51:20;2.22;;;1.09;;
17741;SDS011;8993;51.822;-2.268;2023-03-14T09:56:25;3.33;;;1.05;;
17741;SDS011;8993;51.822;-2.268;2023-03-14T10:01:28;3.43;;;1.18;;
17741;SDS011;8993;51.822;-2.268;2023-03-14T10:06:32;2.23;;;1.05;;
17741;SDS011;8993;51.822;-2.268;2023-03-14T10:11:36;2.09;;;0.92;;
17741;SDS011;8993;51.822;-2.268;2023-03-14T10:16:41;3.06;;;0.79;;
17741;SDS011;8993;51.822;-2.268;2023-03-14T10:21:49;2.59;;;0.80;;
17741;SDS011;8993;51.822;-2.268;2023-03-14T10:26:49;3.19;;;1.09;;
17741;SDS011;8993;51.822;-2.268;2023-03-14T10:31:53;1.86;;;0.78;;
17741;SDS011;8993;51.822;-2.268;2023-03-14T10:36:57;4.91;;;1.07;;
17741;SDS011;8993;51.822;-2.268;2023-03-14T10:42:03;6.29;;;1.06;;
17741;SDS011;8993;51.822;-2.268;2023-03-14T10:47:05;5.62;;;0.92;;
17741;SDS011;8993;51.822;-2.268;2023-03-14T10:52:19;5.41;;;1.01;;
17741;SDS011;8993;51.822;-2.268;2023-03-14T10:57:13;4.85;;;0.93;;
17741;SDS011;8993;51.822;-2.268;2023-03-14T11:07:23;4.83;;;0.92;;
17741;SDS011;8993;51.822;-2.268;2023-03-14T11:12:30;3.93;;;0.84;;
17741;SDS011;8993;51.822;-2.268;2023-03-14T11:17:30;4.55;;;0.89;;
17741;SDS011;8993;51.822;-2.268;2023-03-14T11:22:34;4.44;;;0.90;;
17741;SDS011;8993;51.822;-2.268;2023-03-14T11:27:42;6.91;;;1.01;;
17741;SDS011;8993;51.822;-2.268;2023-03-14T11:32:43;5.58;;;0.87;;
17741;SDS011;8993;51.822;-2.268;2023-03-14T11:37:46;5.70;;;0.72;;
17741;SDS011;8993;51.822;-2.268;2023-03-14T11:42:52;5.51;;;0.85;;
17741;SDS011;8993;51.822;-2.268;2023-03-14T11:47:55;5.50;;;0.79;;
17741;SDS011;8993;51.822;-2.268;2023-03-14T11:53:01;5.61;;;0.74;;
17741;SDS011;8993;51.822;-2.268;2023-03-14T11:58:03;5.99;;;0.80;;
17741;SDS011;8993;51.822;-2.268;2023-03-14T12:03:09;6.61;;;0.72;;
17741;SDS011;8993;51.822;-2.268;2023-03-14T12:13:15;4.82;;;0.67;;
17741;SDS011;8993;51.822;-2.268;2023-03-14T12:18:20;6.57;;;0.79;;
17741;SDS011;8993;51.822;-2.268;2023-03-14T12:23:23;5.13;;;0.72;;
17741;SDS011;8993;51.822;-2.268;2023-03-14T12:28:30;4.63;;;0.61;;
17741;SDS011;8993;51.822;-2.268;2023-03-14T12:33:32;5.35;;;0.64;;
17741;SDS011;8993;51.822;-2.268;2023-03-14T12:39:00;5.47;;;0.65;;
17741;SDS011;8993;51.822;-2.268;2023-03-14T12:43:40;5.73;;;0.67;;
17741;SDS011;8993;51.822;-2.268;2023-03-14T12:48:44;5.50;;;0.75;;
17741;SDS011;8993;51.822;-2.268;2023-03-14T12:53:58;5.87;;;0.83;;
17741;SDS011;8993;51.822;-2.268;2023-03-14T12:59:01;5.69;;;0.63;;
17741;SDS011;8993;51.822;-2.268;2023-03-14T13:03:56;6.38;;;0.75;;
17741;SDS011;8993;51.822;-2.268;2023-03-14T13:09:01;4.35;;;0.68;;
17741;SDS011;8993;51.822;-2.268;2023-03-14T13:14:07;5.07;;;0.75;;
17741;SDS011;8993;51.822;-2.268;2023-03-14T13:19:10;5.34;;;0.66;;
17741;SDS011;8993;51.822;-2.268;2023-03-14T13:24:20;3.31;;;0.54;;
17741;SDS011;8993;51.822;-2.268;2023-03-14T13:29:16;4.64;;;0.50;;
17741;SDS011;8993;51.822;-2.268;2023-03-14T13:34:19;3.70;;;0.58;;
17741;SDS011;8993;51.822;-2.268;2023-03-14T13:39:24;5.05;;;0.54;;
17741;SDS011;8993;51.822;-2.268;2023-03-14T13:44:29;3.90;;;0.65;;
17741;SDS011;8993;51.822;-2.268;2023-03-14T13:49:32;5.03;;;0.74;;
17741;SDS011;8993;51.822;-2.268;2023-03-14T13:54:38;4.48;;;0.68;;
17741;SDS011;8993;51.822;-2.268;2023-03-14T13:59:40;5.56;;;0.68;;
17741;SDS011;8993;51.822;-2.268;2023-03-14T14:04:44;5.25;;;0.64;;
17741;SDS011;8993;51.822;-2.268;2023-03-14T14:09:48;6.93;;;0.75;;
17741;SDS011;8993;51.822;-2.268;2023-03-14T14:14:53;7.40;;;0.78;;
17741;SDS011;8993;51.822;-2.268;2023-03-14T14:19:56;7.76;;;0.69;;
17741;SDS011;8993;51.822;-2.268;2023-03-14T14:25:00;5.72;;;0.73;;
17741;SDS011;8993;51.822;-2.268;2023-03-14T14:30:05;4.92;;;0.65;;
17741;SDS011;8993;51.822;-2.268;2023-03-14T14:35:08;5.46;;;0.63;;
17741;SDS011;8993;51.822;-2.268;2023-03-14T14:40:16;4.25;;;0.57;;
17741;SDS011;8993;51.822;-2.268;2023-03-14T14:45:16;5.05;;;0.57;;
17741;SDS011;8993;51.822;-2.268;2023-03-14T14:50:25;5.35;;;0.59;;
17741;SDS011;8993;51.822;-2.268;2023-03-14T14:55:28;5.41;;;0.66;;
17741;SDS011;8993;51.822;-2.268;2023-03-14T15:00:28;4.81;;;0.59;;
17741;SDS011;8993;51.822;-2.268;2023-03-14T15:05:32;6.23;;;0.76;;
17741;SDS011;8993;51.822;-2.268;2023-03-14T15:10:36;6.96;;;0.68;;
17741;SDS011;8993;51.822;-2.268;2023-03-14T15:15:40;5.36;;;0.66;;
17741;SDS011;8993;51.822;-2.268;2023-03-14T15:20:45;5.63;;;0.68;;
17741;SDS011;8993;51.822;-2.268;2023-03-14T15:25:49;3.94;;;0.40;;
17741;SDS011;8993;51.822;-2.268;2023-03-14T15:30:53;3.11;;;0.41;;
17741;SDS011;8993;51.822;-2.268;2023-03-14T15:35:57;2.75;;;0.41;;
17741;SDS011;8993;51.822;-2.268;2023-03-14T15:41:01;3.63;;;0.46;;
17741;SDS011;8993;51.822;-2.268;2023-03-14T15:46:05;4.36;;;0.59;;
17741;SDS011;8993;51.822;-2.268;2023-03-14T15:51:09;4.40;;;0.57;;
17741;SDS011;8993;51.822;-2.268;2023-03-14T15:56:14;3.74;;;0.57;;
17741;SDS011;8993;51.822;-2.268;2023-03-14T16:01:17;4.58;;;0.53;;
17741;SDS011;8993;51.822;-2.268;2023-03-14T16:06:21;1.85;;;0.39;;
17741;SDS011;8993;51.822;-2.268;2023-03-14T16:11:25;3.06;;;0.38;;
17741;SDS011;8993;51.822;-2.268;2023-03-14T16:16:29;2.45;;;0.44;;
17741;SDS011;8993;51.822;-2.268;2023-03-14T16:21:33;2.92;;;0.45;;
17741;SDS011;8993;51.822;-2.268;2023-03-14T16:26:37;2.55;;;0.35;;
17741;SDS011;8993;51.822;-2.268;2023-03-14T16:31:41;3.24;;;0.37;;
17741;SDS011;8993;51.822;-2.268;2023-03-14T16:36:46;2.65;;;0.35;;
17741;SDS011;8993;51.822;-2.268;2023-03-14T16:41:49;3.43;;;0.41;;
17741;SDS011;8993;51.822;-2.268;2023-03-14T16:46:53;3.01;;;0.40;;
17741;SDS011;8993;51.822;-2.268;2023-03-14T16:51:58;2.28;;;0.44;;
17741;SDS011;8993;51.822;-2.268;2023-03-14T16:57:02;6.01;;;0.62;;
17741;SDS011;8993;51.822;-2.268;2023-03-14T17:02:07;5.03;;;0.59;;
17741;SDS011;8993;51.822;-2.268;2023-03-14T17:07:10;4.36;;;0.61;;
17741;SDS011;8993;51.822;-2.268;2023-03-14T17:12:14;5.10;;;0.67;;
17741;SDS011;8993;51.822;-2.268;2023-03-14T17:17:18;5.95;;;0.66;;
17741;SDS011;8993;51.822;-2.268;2023-03-14T17:22:22;4.77;;;0.62;;
17741;SDS011;8993;51.822;-2.268;2023-03-14T17:27:26;5.65;;;0.76;;
17741;SDS011;8993;51.822;-2.268;2023-03-14T17:32:31;4.96;;;0.66;;
17741;SDS011;8993;51.822;-2.268;2023-03-14T17:37:35;3.67;;;0.69;;
17741;SDS011;8993;51.822;-2.268;2023-03-14T17:42:39;4.38;;;0.70;;
17741;SDS011;8993;51.822;-2.268;2023-03-14T17:47:43;5.39;;;0.59;;
17741;SDS011;8993;51.822;-2.268;2023-03-14T17:52:47;4.39;;;0.67;;
17741;SDS011;8993;51.822;-2.268;2023-03-14T17:57:51;5.26;;;0.74;;
17741;SDS011;8993;51.822;-2.268;2023-03-14T18:02:56;3.87;;;0.64;;
17741;SDS011;8993;51.822;-2.268;2023-03-14T18:07:59;3.52;;;0.63;;
17741;SDS011;8993;51.822;-2.268;2023-03-14T18:13:03;4.59;;;0.67;;
17741;SDS011;8993;51.822;-2.268;2023-03-14T18:18:07;2.58;;;0.45;;
17741;SDS011;8993;51.822;-2.268;2023-03-14T18:23:11;2.33;;;0.46;;
17741;SDS011;8993;51.822;-2.268;2023-03-14T18:28:15;3.16;;;0.54;;
17741;SDS011;8993;51.822;-2.268;2023-03-14T18:33:19;2.14;;;0.43;;
17741;SDS011;8993;51.822;-2.268;2023-03-14T18:38:23;2.58;;;0.55;;
17741;SDS011;8993;51.822;-2.268;2023-03-14T18:43:27;2.57;;;0.54;;
17741;SDS011;8993;51.822;-2.268;2023-03-14T18:48:31;1.47;;;0.51;;
17741;SDS011;8993;51.822;-2.268;2023-03-14T18:53:35;1.66;;;0.45;;
17741;SDS011;8993;51.822;-2.268;2023-03-14T18:58:39;1.90;;;0.50;;
17741;SDS011;8993;51.822;-2.268;2023-03-14T19:03:45;1.74;;;0.45;;
17741;SDS011;8993;51.822;-2.268;2023-03-14T19:08:47;2.56;;;0.79;;
17741;SDS011;8993;51.822;-2.268;2023-03-14T19:13:51;1.12;;;0.37;;
17741;SDS011;8993;51.822;-2.268;2023-03-14T19:18:55;1.73;;;0.37;;
17741;SDS011;8993;51.822;-2.268;2023-03-14T19:24:00;2.95;;;1.54;;
17741;SDS011;8993;51.822;-2.268;2023-03-14T19:29:03;3.42;;;0.83;;
17741;SDS011;8993;51.822;-2.268;2023-03-14T19:34:07;1.82;;;0.43;;
17741;SDS011;8993;51.822;-2.268;2023-03-14T19:39:11;1.33;;;0.39;;
17741;SDS011;8993;51.822;-2.268;2023-03-14T19:44:16;6.00;;;1.73;;
17741;SDS011;8993;51.822;-2.268;2023-03-14T19:49:20;2.96;;;1.08;;
17741;SDS011;8993;51.822;-2.268;2023-03-14T19:54:24;3.64;;;0.78;;
17741;SDS011;8993;51.822;-2.268;2023-03-14T19:59:28;3.16;;;0.84;;
17741;SDS011;8993;51.822;-2.268;2023-03-14T20:04:33;2.12;;;0.62;;
17741;SDS011;8993;51.822;-2.268;2023-03-14T20:09:36;3.08;;;0.68;;
17741;SDS011;8993;51.822;-2.268;2023-03-14T20:14:41;2.64;;;0.72;;
17741;SDS011;8993;51.822;-2.268;2023-03-14T20:19:45;2.87;;;0.85;;
17741;SDS011;8993;51.822;-2.268;2023-03-14T20:24:51;2.46;;;0.85;;
17741;SDS011;8993;51.822;-2.268;2023-03-14T20:29:55;2.64;;;0.82;;
17741;SDS011;8993;51.822;-2.268;2023-03-14T20:34:59;2.94;;;0.77;;
17741;SDS011;8993;51.822;-2.268;2023-03-14T20:40:05;2.45;;;0.72;;
17741;SDS011;8993;51.822;-2.268;2023-03-14T20:45:07;3.35;;;1.23;;
17741;SDS011;8993;51.822;-2.268;2023-03-14T20:50:11;2.80;;;0.92;;
17741;SDS011;8993;51.822;-2.268;2023-03-14T20:55:15;2.62;;;0.97;;
17741;SDS011;8993;51.822;-2.268;2023-03-14T21:00:20;3.15;;;1.19;;
17741;SDS011;8993;51.822;-2.268;2023-03-14T21:05:23;2.74;;;1.11;;
17741;SDS011;8993;51.822;-2.268;2023-03-14T21:10:28;3.29;;;1.01;;
17741;SDS011;8993;51.822;-2.268;2023-03-14T21:15:32;3.07;;;0.86;;
17741;SDS011;8993;51.822;-2.268;2023-03-14T21:20:37;2.11;;;0.81;;
17741;SDS011;8993;51.822;-2.268;2023-03-14T21:25:40;4.46;;;1.14;;
17741;SDS011;8993;51.822;-2.268;2023-03-14T21:30:45;2.86;;;1.21;;
17741;SDS011;8993;51.822;-2.268;2023-03-14T21:35:51;2.47;;;1.03;;
17741;SDS011;8993;51.822;-2.268;2023-03-14T21:40:54;3.66;;;2.78;;
17741;SDS011;8993;51.822;-2.268;2023-03-14T21:45:57;4.41;;;1.83;;
17741;SDS011;8993;51.822;-2.268;2023-03-14T21:51:02;2.94;;;1.50;;
17741;SDS011;8993;51.822;-2.268;2023-03-14T21:56:06;4.10;;;1.78;;
17741;SDS011;8993;51.822;-2.268;2023-03-14T22:01:09;4.86;;;1.90;;
17741;SDS011;8993;51.822;-2.268;2023-03-14T22:06:14;4.63;;;1.82;;
17741;SDS011;8993;51.822;-2.268;2023-03-14T22:11:18;3.87;;;1.75;;
17741;SDS011;8993;51.822;-2.268;2023-03-14T22:16:22;4.38;;;2.11;;
17741;SDS011;8993;51.822;-2.268;2023-03-14T22:21:26;6.15;;;2.31;;
17741;SDS011;8993;51.822;-2.268;2023-03-14T22:26:30;4.82;;;2.04;;
17741;SDS011;8993;51.822;-2.268;2023-03-14T22:31:34;7.96;;;2.58;;
17741;SDS011;8993;51.822;-2.268;2023-03-14T22:36:38;4.72;;;1.86;;
17741;SDS011;8993;51.822;-2.268;2023-03-14T22:41:42;5.05;;;1.88;;
17741;SDS011;8993;51.822;-2.268;2023-03-14T22:46:46;4.16;;;1.67;;
17741;SDS011;8993;51.822;-2.268;2023-03-14T22:51:50;4.66;;;1.80;;
17741;SDS011;8993;51.822;-2.268;2023-03-14T22:56:54;5.06;;;1.75;;
17741;SDS011;8993;51.822;-2.268;2023-03-14T23:01:59;4.31;;;1.55;;
17741;SDS011;8993;51.822;-2.268;2023-03-14T23:07:02;5.52;;;1.68;;
17741;SDS011;8993;51.822;-2.268;2023-03-14T23:12:06;4.53;;;1.66;;
17741;SDS011;8993;51.822;-2.268;2023-03-14T23:17:10;4.63;;;1.49;;
17741;SDS011;8993;51.822;-2.268;2023-03-14T23:22:14;3.34;;;1.48;;
17741;SDS011;8993;51.822;-2.268;2023-03-14T23:27:18;5.81;;;1.86;;
17741;SDS011;8993;51.822;-2.268;2023-03-14T23:32:22;5.31;;;1.72;;
17741;SDS011;8993;51.822;-2.268;2023-03-14T23:37:27;7.01;;;2.21;;
17741;SDS011;8993;51.822;-2.268;2023-03-14T23:42:30;10.30;;;3.08;;
17741;SDS011;8993;51.822;-2.268;2023-03-14T23:47:35;6.79;;;2.24;;
17741;SDS011;8993;51.822;-2.268;2023-03-14T23:52:39;5.46;;;1.76;;
17741;SDS011;8993;51.822;-2.268;2023-03-14T23:57:42;7.17;;;1.79;;
